Stewartsville, Missouri
Current Conditions -  °F | °C
As of 4:18 AM on Sunday 25 Jan 2015 (Local Time) from KSTJ Reporting Station
Broken Clouds Broken Clouds  
Wind Chill: 37°   Ceiling: 2900
Heat Index: 44°   Visibility: 10mi
Dew Point: 38°   Wind: 16mph
Humidity: 79%   Direction: 330°NNW
Pressure: 29.64"   Gusts: NA
Location:  39.75°N, 94.5°W
Report Text: KSTJ 251018Z AUTO 33014KT 10SM BKN029 BKN042 07/03 A2964 RMK AO2 T00670033 $
Loading
Personal Weather Stations






























Interactive Weather Map New forecast layout! Learn more

10-Day Weather Forecast

Advertisements
Track Severe Weather on mobile